Historyczne dane pomiarowe

Dodano dane terminowe – wersja testowa.

Dane z okresu 1951-2019

Wersja bazy: 1.34 [2019-03-16, lista zmian], aktualizacja planowana na 2019-04-15

Dane meteo z obszaru Polski uzyskane na podstawie danych udostępnionych przez Instytut Meteorologii i Gospodarki Wodnej – Państwowy Instytut Badawczy.

 

Wybierz Datę:    

       

TemperaturaWilgotnośćWiatrCiśnienieOpadyŚniegCzas trwania zjawisk
 Stacja t tx tn tng RH VA  wxwx mslp ppp RRR   cm mm wxwxwxwxwxwxwx
2019-01-31 -4.8 -0.7 -7.4-13.2 77.3 3.3 4.9 1.1 0.0 0.0- 902.8 0.0 0.0 0.0 51 2.4 6.4----- 8.0-
2019-01-30 -4.3 -0.9 -7.2-13.7 85.8 3.8 5.8 1.1 0.0 0.0- 902.4 0.0 0.0 0.0 55 2.3 4.9- 3.9--- 6.0-
2019-01-29 -3.5 1.1 -9.2-14.8 83.9 4.0 5.1 1.9 0.0 0.0- 903.5 0.0 0.0 0.0 58 2.2 6.3-------
2019-01-28 -1.3 2.5 -4.4-10.3 88.6 5.0 6.9 1.1 0.0 0.0- 896.6 2.8 2.2 0.6 52 2.4 1.1- 10.9-----
2019-01-27 -1.7 2.4 -5.2 -9.3 79.0 4.2 7.3 1.3 0.0 0.0- 900.0 0.0 0.0 0.0 53 2.4 3.7- 2.7-----
2019-01-26 -5.7 -1.5-10.9-14.3 79.5 3.3 7.5 1.4 0.0 0.0- 905.6 0.1 0.1 0.0 54 2.4 0.6- 9.6-----
2019-01-25 -9.0 -7.2-10.7-10.8 81.8 2.6 8.0 1.1 0.0 0.0- 908.3 0.0 0.0 0.0 55 2.2 0.0- 4.3-----
2019-01-24 -9.9 -8.9-10.5-10.6 90.0 2.6 8.0 1.4 0.0 0.0- 905.1 0.4 0.0 0.4 55 2.3 0.0- 15.2- 0.8---
2019-01-23-12.3 -8.3-17.8-27.2 88.1 2.2 4.9 1.0 0.0 0.0- 902.7 0.0 0.0 0.0 56 2.3 2.8- 4.8--- 7.4-
2019-01-22-10.9 -3.0-14.7-23.0 75.9 2.0 1.1 0.9 0.0 0.0- 911.7 0.0 0.0 0.0 56 2.3 7.1----- 16.0-
2019-01-21-10.7 -3.1-14.8-20.8 75.3 2.0 0.0 0.9 0.0 0.0- 918.1 0.0 0.0 0.0 57 2.3 7.0----- 17.0-
2019-01-20 -6.4 -2.2-10.4-15.2 73.9 2.8 6.4 0.6 0.0 0.0- 914.8 0.0 0.0 0.0 59 2.2 2.6-------
2019-01-19 -8.4 -2.3-13.2-20.8 78.1 2.5 5.1 0.8 0.0 0.0- 918.1 0.0 0.0 0.0 60 2.0 6.5-------
2019-01-18 -1.5 6.2 -4.8 -5.4 79.9 4.4 7.8 2.8 0.0 0.0- 911.8 1.3 1.3 0.0 60 2.1 0.1 0.6 13.8-----
2019-01-17 0.4 7.6 -5.6 -8.6 78.1 4.8 6.8 1.5 0.0 0.0- 906.9 0.2 0.0 0.2 67 1.8 4.9 0.3-- 2.8---
2019-01-16 -0.1 1.4 -3.4 -3.3 95.0 5.8 7.8 2.4 0.0 0.0- 909.4 2.3 2.3 0.0 74 1.9 0.0 0.2 10.7- 3.5---
2019-01-15 -5.2 -3.3 -7.4 -7.4 88.4 3.7 8.0 3.4 0.0 0.0- 907.0 10.1 3.4 6.7 64 1.8 0.0- 24.0-----
2019-01-14 -2.6 2.8 -5.7 -6.1 82.4 4.3 7.5 4.5 0.0 0.0- 895.4 5.2 3.3 1.9 55 1.9 0.0- 19.1-----
2019-01-13 0.1 2.1 -1.7 -3.3 77.5 4.8 7.0 2.4 0.0 0.0- 900.9 3.1 0.1 3.0 54 1.8 0.7- 7.5-----
2019-01-12 -2.5 -1.3-10.2-13.2 84.4 4.3 7.8 2.1 0.0 0.0- 910.2 0.2 0.0 0.2 57 1.8 0.3- 9.2-----
2019-01-11 -7.8 -3.8-11.9-18.9 84.6 2.9 5.9 1.3 0.0 0.0- 914.6 0.7 0.1 0.6 61 1.7 5.0- 10.6-----
2019-01-10 -4.6 -2.4 -6.2 -5.6 92.6 4.1 8.0 0.8 0.0 0.0- 911.3 5.6 3.1 2.5 58 1.7 0.0- 24.0-----
2019-01-09 -4.1 -1.9 -6.3 -7.2 93.6 4.3 7.8 0.6 0.0 0.0- 901.8 3.1 2.0 1.1 60 1.5 0.0- 20.7-----
2019-01-08 -5.9 -3.3-14.0-19.6 88.6 3.5 7.6 1.0 0.0 0.0- 908.6 5.5 1.0 4.5 55 1.6 0.0- 12.9-----
2019-01-07-10.8 -6.6-13.9-20.3 82.5 2.2 7.1 0.9 0.0 0.0- 923.3 0.0 0.0 0.0 62 1.4 3.4- 8.2-----
2019-01-06 -6.9 -2.7 -9.4 -9.4 85.8 3.2 8.0 2.1 0.0 0.0- 917.2 2.9 2.4 0.5 58 1.5 0.0- 24.0-----
2019-01-05 -3.4 -1.3 -7.3 -7.4 90.5 4.3 7.9 1.6 0.0 0.0- 912.7 9.3 8.0 1.3 61 1.3 0.0- 23.1-----
2019-01-04 -8.0 -7.3 -9.2 -9.5 81.3 2.7 7.9 1.5 0.0 0.0- 922.1 3.0 0.1 2.9 66 1.3 0.9- 17.7-----
2019-01-03 -7.5 -4.8 -8.2 -9.1 85.5 3.0 8.0 1.6 0.0 0.0- 919.1 9.2 6.5 2.7 50 1.2 0.0- 24.0-----
2019-01-02 -3.7 1.8 -4.8 -4.8 89.8 4.2 7.8 3.3 0.0 0.0- 911.3 12.7 8.2 4.5 28 1.5 0.0- 24.0- 2.2---
2019-01-01 -1.0 2.8 -6.7-11.5 84.9 5.0 6.6 2.8 0.0 0.0- 918.4 3.3 0.3 3.0 26 1.2 0.0 2.2 8.1 0.3----
2018-12-31 -1.8 -0.2 -2.5 -2.6 90.9 4.9 7.9 1.5 0.0 0.0- 924.2 3.6 3.5 0.0 25 1.3 0.0- 20.7-----
2018-12-30 -0.3 1.5 -1.8 -5.3 91.5 5.5 6.9 1.4 0.0 0.0- 919.0 8.4 0.8 7.6 12 2.1 1.4- 9.5- 2.5---
2018-12-29 -0.1 0.9 -0.3 -1.1 91.4 5.5 8.0 1.4 0.0 0.0- 923.4 0.5 0.4 0.1 14 2.3 0.0- 10.7-----
2018-12-28 2.1 3.7 0.6 0.2 92.0 6.5 7.6 2.0 0.0 0.0- 920.3 5.7 1.4 4.3 12 1.7 0.0 1.8 6.1 1.9----
2018-12-27 1.1 2.8 -1.2 -3.4 89.6 6.0 7.9 1.9 0.0 0.0- 922.4 0.3 0.3 0.0 17 1.4 0.0 7.3 1.0-----
2018-12-26 -0.7 -0.4 -1.6 -1.9 84.9 4.9 7.8 3.3 0.0 0.0- 923.0 0.2 0.2 0.0 23 1.1 0.0- 18.1-----
2018-12-25 -3.6 -1.6 -6.3 -6.5 87.1 4.1 8.0 2.3 0.0 0.0- 922.4 5.7 3.0 2.7 19 1.2 0.0- 23.3-----
2018-12-24 -2.1 1.9 -5.1 -5.5 89.5 4.8 7.9 2.1 0.0 0.0- 913.5 8.8 6.8 2.0 4 0.0 0.0- 19.5- 4.0---
2018-12-23 1.1 3.8 0.0 -0.5 89.5 5.9 7.6 2.4 0.0 0.0- 916.1 3.1 0.7 2.4 5 2.2 0.0- 9.4-----
2018-12-22 4.4 6.9 3.8 2.2 79.5 6.7 7.8 4.4 0.0 0.0- 909.9 5.4 1.7 3.7 7 2.1 0.0 10.4 3.2 1.8----
2018-12-21 2.1 5.3 -3.9 -8.3 69.6 4.8 6.5 2.1 0.0 0.0- 916.2 0.0 0.0 0.0 10 1.6 0.9 1.6------
2018-12-20 -3.7 -1.1 -9.4-13.4 86.3 4.1 7.5 1.1 0.0 0.0- 918.2 0.0 0.0 0.0 11 1.5 0.1- 3.8--- 7.5-
2018-12-19 -7.8 -1.3-11.3-18.1 87.9 3.0 3.8 0.8 0.0 0.0- 922.7 0.0 0.0 0.0 12 1.8 6.1----- 13.0-
2018-12-18 -2.7 0.8 -4.1 -9.1 79.1 4.0 6.0 1.0 0.0 0.0- 925.7 0.0 0.0 0.0 14 1.3 1.8----- 6.0-
2018-12-17 -7.0 -2.0-12.8-18.0 87.8 3.3 5.1 1.0 0.0 0.0- 919.5 0.0 0.0 0.0 14 1.4 0.5----- 8.0-
2018-12-16 -8.7 -3.7-12.0-17.5 87.1 2.8 5.0 0.8 0.0 0.0- 915.8 0.0 0.0 0.0 15 1.3 6.0----- 6.0-
2018-12-15 -6.1 -5.3 -6.6 -6.6 91.6 3.6 8.0 1.8 0.0 0.0- 919.1 2.8 1.8 1.0 12 1.3 0.0- 15.0-----
2018-12-14 -5.7 -4.3 -7.0 -6.9 87.0 3.5 7.9 1.4 0.0 0.0- 920.2 1.5 0.0 1.5 13 1.4 0.0- 3.1--- 4.2-
2018-12-13 -5.1 -2.6 -8.3-13.0 83.8 3.5 7.0 0.9 0.0 0.0- 919.0 0.0 0.0 0.0 17 1.0 0.9- 1.8--- 5.0-
2018-12-12 -2.8 -1.4 -3.8 -4.0 90.4 4.5 7.9 0.8 0.0 0.0- 915.8 2.3 2.2 0.1 13 1.0 0.0- 21.5-----
2018-12-11 -2.6 -0.2 -6.9-13.0 84.3 4.3 6.9 1.3 0.0 0.0- 910.3 3.8 0.3 3.5 8 1.0 0.3- 11.0-----
2018-12-10 -0.3 3.2 -1.9 -3.8 86.9 5.2 7.8 2.3 0.0 0.0- 907.5 4.5 3.7 0.8 1 0.0 0.0 1.3 15.5 0.4----
2018-12-09 3.1 6.7 -2.0 -3.5 74.6 5.6 7.0 2.9 0.0 0.0- 902.0 0.5 0.1 0.4- 0.0 1.0 3.1 1.2--- 2.2-
2018-12-08 2.9 6.7 0.2 -1.4 80.9 6.1 6.6 2.3 0.0 0.0- 908.3 0.2 0.2 0.0- 0.0 0.0 8.7------
2018-12-07 3.5 8.3 -2.0 -2.5 86.3 6.8 7.5 1.9 0.0 0.0- 914.2 3.9 0.0 3.9- 0.0 0.1 0.9------
2018-12-06 -4.1 0.1 -8.9-10.7 82.9 3.8 4.8 0.6 0.0 0.0- 922.4 0.2 0.0 0.2 1 0.0 4.5 1.1 1.8--- 9.0-
2018-12-05 -2.6 1.7 -5.3 -6.5 79.1 4.0 3.8 1.9 0.0 0.0- 925.2 0.0 0.0 0.0 1 0.0 3.8- 1.3--- 5.0-
2018-12-04 2.7 6.1 0.2 -1.0 92.3 6.8 7.6 2.1 0.0 0.0- 912.7 3.7 3.1 0.6 3 0.0 0.0 9.8 4.4-----
2018-12-03 1.4 5.4 -3.6 -4.7 92.5 6.3 7.4 0.9 0.0 0.0- 909.5 0.0 0.0 0.0 4 0.0 2.5 4.6 0.6- 3.0---
334.4 ms

 

Źródłem pochodzenia danych jest Instytut Meteorologii i Gospodarki Wodnej – Państwowy Instytut Badawczy. Dane Instytutu Meteorologii i Gospodarki Wodnej – Państwowego Instytutu Badawczego zostały przetworzone.

Dane źródłowe można odnaleźć na stronie https://dane.imgw.pl